Time;durP1;ratioP1;P1;durP2;ratioP2;P2;SDS_P1;SDS_P2;PMS_P1;PMS_P2;Temp;Humidity;BMP_temperature;BMP_pressure;BME280_temperature;BME280_humidity;BME280_pressure;Samples;Min_cycle;Max_cycle;Signal;HPM_P1;HPM_P2
2023/12/11 00:04:42;;;;;;;;;;;;;;;-0.78;82.28;101358.52;106414;1270;109961;-65
2023/12/11 00:07:10;;;;;;;;;;;;;;;-0.79;82.34;101357.66;106486;1268;108136;-66
2023/12/11 00:09:39;;;;;;;;;;;;;;;-0.82;82.31;101355.80;106524;1268;97872;-65
2023/12/11 00:12:07;;;;;;;;;;;;;;;-0.84;82.03;101355.00;106558;1268;97730;-64
2023/12/11 00:14:35;;;;;;;;;;;;;;;-0.87;82.09;101351.77;106511;1269;111777;-68
2023/12/11 00:17:04;;;;;;;;;;;;;;;-0.90;82.04;101354.51;106482;1270;109675;-66
2023/12/11 00:19:32;;;;;;;;;;;;;;;-0.94;82.07;101360.42;106510;1268;107416;-66
2023/12/11 00:22:01;;;;;;;;;;;;;;;-0.96;81.98;101350.63;106515;1268;97859;-65
2023/12/11 00:24:30;;;;;;;;;;;;;;;-0.98;82.14;101340.48;106524;1268;97923;-66
2023/12/11 00:26:58;;;;;;;;;;;;;;;-1.01;82.02;101341.09;106499;1269;111431;-63
2023/12/11 00:29:26;;;;;;;;;;;;;;;-1.04;82.07;101343.48;106500;1268;108624;-64
2023/12/11 00:31:54;;;;;;;;;;;;;;;-1.07;82.12;101338.46;106520;1268;108407;-65
2023/12/11 00:34:22;;;;;;;;;;;;;;;-1.13;81.82;101330.70;106460;1268;97852;-66
2023/12/11 00:36:50;;;;;;;;;;;;;;;-1.18;81.97;101329.81;106416;1268;97863;-64
2023/12/11 00:39:19;;;;;;;;;;;;;;;-1.25;81.77;101329.86;106496;1268;112371;-66
2023/12/11 00:41:47;;;;;;;;;;;;;;;-1.29;81.72;101335.26;106553;1268;109729;-64
2023/12/11 00:44:15;;;;;;;;;;;;;;;-1.31;82.30;101336.35;106459;1272;108165;-64
2023/12/11 00:46:43;;;;;;;;;;;;;;;-1.28;82.56;101331.34;106513;1268;97859;-64
2023/12/11 00:49:11;;;;;;;;;;;;;;;-1.24;82.79;101326.14;106465;1269;98637;-65
2023/12/11 00:51:40;;;;;;;;;;;;;;;-1.20;82.71;101326.88;106522;1268;112383;-65
2023/12/11 00:54:08;;;;;;;;;;;;;;;-1.18;82.97;101325.42;106544;1268;109416;-66
2023/12/11 00:56:36;;;;;;;;;;;;;;;-1.21;82.56;101326.38;106485;1268;108305;-65
2023/12/11 00:59:04;;;;;;;;;;;;;;;-1.24;82.59;101321.02;106438;1268;97906;-66
2023/12/11 01:01:33;;;;;;;;;;;;;;;-1.29;82.35;101317.29;106454;1271;97868;-64
2023/12/11 01:04:01;;;;;;;;;;;;;;;-1.31;82.44;101322.81;106452;1271;110666;-64
2023/12/11 01:06:30;;;;;;;;;;;;;;;-1.30;82.56;101319.25;106497;1270;109958;-64
2023/12/11 01:08:58;;;;;;;;;;;;;;;-1.29;82.63;101326.97;106423;1271;108515;-65
2023/12/11 01:11:30;;;;;;;;;;;;;;;-1.31;82.52;101333.54;106445;1270;97868;-66
2023/12/11 01:13:58;;;;;;;;;;;;;;;-1.31;82.59;101328.11;106464;1269;97739;-66
2023/12/11 01:16:26;;;;;;;;;;;;;;;-1.29;82.63;101326.98;106413;1270;112068;-66
2023/12/11 01:18:54;;;;;;;;;;;;;;;-1.28;82.81;101325.90;106463;1271;109730;-66
2023/12/11 01:21:23;;;;;;;;;;;;;;;-1.26;82.77;101319.66;106441;1271;106049;-65
2023/12/11 01:23:51;;;;;;;;;;;;;;;-1.25;82.70;101311.54;106447;1271;97898;-64
2023/12/11 01:26:22;;;;;;;;;;;;;;;-1.22;82.92;101311.13;106494;1271;97934;-66
2023/12/11 01:28:51;;;;;;;;;;;;;;;-1.21;82.78;101309.15;106495;1268;110555;-65
2023/12/11 01:31:19;;;;;;;;;;;;;;;-1.20;82.98;101308.23;106452;1271;109306;-66
2023/12/11 01:33:48;;;;;;;;;;;;;;;-1.19;82.79;101305.20;106382;1270;108138;-64
2023/12/11 01:36:16;;;;;;;;;;;;;;;-1.18;82.78;101302.90;106463;1270;97752;-64
2023/12/11 01:38:44;;;;;;;;;;;;;;;-1.19;83.01;101293.23;106475;1271;97872;-65
2023/12/11 01:41:13;;;;;;;;;;;;;;;-1.19;82.99;101286.91;106420;1275;112062;-65
2023/12/11 01:43:50;;;;;;;;;;;;;;;-1.18;82.98;101281.77;106487;1268;109925;-65
2023/12/11 01:46:18;;;;;;;;;;;;;;;-1.18;82.96;101281.41;106413;1271;108544;-64
2023/12/11 01:48:48;;;;;;;;;;;;;;;-1.19;82.90;101274.77;106449;1271;98000;-65
2023/12/11 01:51:17;;;;;;;;;;;;;;;-1.21;82.83;101275.17;106464;1270;97752;-66
2023/12/11 01:53:46;;;;;;;;;;;;;;;-1.20;82.76;101270.75;106441;1271;110419;-65
2023/12/11 01:56:16;;;;;;;;;;;;;;;-1.18;82.83;101268.94;106412;1272;109765;-66
2023/12/11 01:58:45;;;;;;;;;;;;;;;-1.17;82.92;101266.79;106274;1271;107863;-64
2023/12/11 02:01:14;;;;;;;;;;;;;;;-1.16;82.83;101271.14;106386;1271;97892;-65
2023/12/11 02:03:42;;;;;;;;;;;;;;;-1.15;82.71;101264.40;106517;1268;97751;-65
2023/12/11 02:06:10;;;;;;;;;;;;;;;-1.15;82.78;101261.79;106524;1268;110893;-66
2023/12/11 02:08:38;;;;;;;;;;;;;;;-1.14;82.68;101261.91;106475;1271;109564;-66
2023/12/11 02:11:07;;;;;;;;;;;;;;;-1.15;82.78;101255.79;106449;1268;108603;-67
2023/12/11 02:13:35;;;;;;;;;;;;;;;-1.14;82.77;101260.35;106515;1268;97907;-64
2023/12/11 02:16:04;;;;;;;;;;;;;;;-1.16;82.89;101255.67;106539;1268;97951;-65
2023/12/11 02:18:32;;;;;;;;;;;;;;;-1.18;82.93;101250.95;106532;1271;110672;-64
2023/12/11 02:21:00;;;;;;;;;;;;;;;-1.17;82.88;101251.82;106534;1268;109024;-65
2023/12/11 02:23:29;;;;;;;;;;;;;;;-1.16;83.04;101260.05;106463;1274;108598;-65
2023/12/11 02:26:12;;;;;;;;;;;;;;;-1.15;83.02;101264.05;106522;1268;97865;-64
2023/12/11 02:28:40;;;;;;;;;;;;;;;-1.13;82.93;101264.54;106549;1268;97876;-65
2023/12/11 02:31:09;;;;;;;;;;;;;;;-1.12;82.92;101262.77;106527;1268;111731;-65
2023/12/11 02:33:37;;;;;;;;;;;;;;;-1.14;82.95;101266.30;106515;1273;109731;-65
2023/12/11 02:36:06;;;;;;;;;;;;;;;-1.12;82.95;101268.73;106440;1268;108288;-65
2023/12/11 02:38:34;;;;;;;;;;;;;;;-1.08;83.23;101265.24;106325;1268;97847;-65
2023/12/11 02:41:03;;;;;;;;;;;;;;;-1.05;83.15;101266.93;106339;1268;96213;-66
2023/12/11 02:43:32;;;;;;;;;;;;;;;-1.02;83.24;101269.98;106362;1268;112534;-66
2023/12/11 02:46:02;;;;;;;;;;;;;;;-0.98;83.58;101268.10;107045;1268;109838;-66
2023/12/11 02:48:31;;;;;;;;;;;;;;;-0.90;83.76;101265.02;106485;1269;108583;-65
2023/12/11 02:51:00;;;;;;;;;;;;;;;-0.85;83.75;101267.68;106501;1268;97873;-65
2023/12/11 02:53:28;;;;;;;;;;;;;;;-0.76;83.99;101265.30;106541;1268;97936;-63
2023/12/11 02:55:56;;;;;;;;;;;;;;;-0.67;84.42;101265.86;106505;1273;111313;-66
2023/12/11 06:02:39;;;;;;;;;;;;;;;-0.67;81.80;101225.54;106415;1270;108358;-65
2023/12/11 06:05:08;;;;;;;;;;;;;;;-0.67;81.69;101228.67;106418;1271;97878;-65
2023/12/11 06:07:37;;;;;;;;;;;;;;;-0.62;81.94;101230.65;106447;1272;97753;-65
2023/12/11 06:10:05;;;;;;;;;;;;;;;-0.57;82.00;101233.29;106510;1269;111354;-67
2023/12/11 06:12:33;;;;;;;;;;;;;;;-0.50;82.29;101233.05;106546;1268;108661;-65
2023/12/11 06:15:02;;;;;;;;;;;;;;;-0.47;82.18;101232.91;106446;1268;107823;-67
2023/12/11 06:17:30;;;;;;;;;;;;;;;-0.44;82.24;101235.82;106467;1269;97961;-67
2023/12/11 06:19:59;;;;;;;;;;;;;;;-0.42;82.05;101234.16;106539;1272;97863;-67
2023/12/11 06:22:27;;;;;;;;;;;;;;;-0.36;82.34;101236.06;106536;1270;110313;-66
2023/12/11 06:24:56;;;;;;;;;;;;;;;-0.27;82.82;101235.59;106418;1271;109470;-64
2023/12/11 06:27:27;;;;;;;;;;;;;;;-0.17;83.01;101239.30;106339;1270;106843;-65
2023/12/11 06:29:56;;;;;;;;;;;;;;;-0.09;83.02;101239.33;106449;1268;97855;-66
2023/12/11 06:32:25;;;;;;;;;;;;;;;-0.05;82.80;101235.84;106480;1273;97860;-69
2023/12/11 06:34:53;;;;;;;;;;;;;;;0.02;82.89;101229.95;106477;1273;111320;-68
2023/12/11 06:37:21;;;;;;;;;;;;;;;0.11;83.06;101226.81;106486;1271;109261;-68
2023/12/11 06:39:50;;;;;;;;;;;;;;;0.21;83.06;101229.42;106476;1272;108031;-69
2023/12/11 06:42:18;;;;;;;;;;;;;;;0.33;83.10;101230.23;106403;1269;98577;-68
2023/12/11 06:44:46;;;;;;;;;;;;;;;0.42;82.96;101227.20;106442;1270;97915;-69
2023/12/11 06:47:14;;;;;;;;;;;;;;;0.51;82.80;101236.41;106567;1268;111324;-69
2023/12/11 06:49:44;;;;;;;;;;;;;;;0.56;82.43;101233.03;106463;1276;109405;-68
2023/12/11 06:52:13;;;;;;;;;;;;;;;0.64;82.42;101235.38;106470;1268;107501;-70
2023/12/11 06:54:41;;;;;;;;;;;;;;;0.71;82.43;101238.96;106468;1270;97967;-68
2023/12/11 06:57:10;;;;;;;;;;;;;;;0.75;82.23;101242.66;106521;1273;97955;-70
2023/12/11 06:59:38;;;;;;;;;;;;;;;0.77;81.80;101248.98;106485;1270;111250;-69
2023/12/11 07:02:06;;;;;;;;;;;;;;;0.75;81.57;101245.52;106549;1272;108674;-68
2023/12/11 07:04:34;;;;;;;;;;;;;;;0.75;81.50;101234.56;106510;1268;108197;-68
2023/12/11 07:07:03;;;;;;;;;;;;;;;0.73;81.20;101232.88;106469;1273;97888;-67
2023/12/11 07:09:31;;;;;;;;;;;;;;;0.70;80.92;101234.61;106547;1272;97844;-68
2023/12/11 07:12:00;;;;;;;;;;;;;;;0.67;81.00;101228.38;106526;1270;111373;-70
2023/12/11 07:14:28;;;;;;;;;;;;;;;0.67;80.98;101232.39;106549;1272;109525;-69
2023/12/11 07:16:56;;;;;;;;;;;;;;;0.68;80.75;101231.85;106481;1270;107774;-70
2023/12/11 07:19:24;;;;;;;;;;;;;;;0.67;80.37;101225.18;106439;1273;97940;-70
2023/12/11 07:21:54;;;;;;;;;;;;;;;0.61;80.05;101224.68;106576;1268;97888;-69
2023/12/11 07:24:22;;;;;;;;;;;;;;;0.52;79.66;101228.05;106443;1276;111509;-69
2023/12/11 07:26:50;;;;;;;;;;;;;;;0.45;79.89;101226.39;106525;1270;109093;-70
2023/12/11 07:29:19;;;;;;;;;;;;;;;0.40;80.08;101224.64;106547;1270;107821;-70
2023/12/11 07:31:47;;;;;;;;;;;;;;;0.39;80.29;101227.33;106443;1268;97742;-70
2023/12/11 07:34:16;;;;;;;;;;;;;;;0.43;80.50;101228.39;106519;1273;97865;-68
2023/12/11 07:36:44;;;;;;;;;;;;;;;0.45;80.21;101224.77;106434;1273;111019;-70
2023/12/11 07:39:13;;;;;;;;;;;;;;;0.50;80.45;101221.59;106498;1270;109352;-69
2023/12/11 07:41:42;;;;;;;;;;;;;;;0.55;80.66;101221.77;106528;1272;108127;-69
2023/12/11 07:44:10;;;;;;;;;;;;;;;0.64;81.01;101225.14;106558;1274;97921;-68
2023/12/11 07:46:38;;;;;;;;;;;;;;;0.73;81.39;101223.33;106512;1273;98031;-68
2023/12/11 07:49:13;;;;;;;;;;;;;;;0.85;81.33;101217.04;106549;1273;111376;-68
2023/12/11 07:51:43;;;;;;;;;;;;;;;0.89;80.78;101215.10;106521;1273;108842;-69
2023/12/11 07:54:12;;;;;;;;;;;;;;;0.93;80.75;101217.41;106506;1271;108233;-69
2023/12/11 07:56:40;;;;;;;;;;;;;;;0.99;80.75;101218.95;106482;1269;97958;-71
2023/12/11 07:59:09;;;;;;;;;;;;;;;1.05;80.92;101218.52;106514;1273;97863;-70
2023/12/11 08:01:37;;;;;;;;;;;;;;;1.13;80.78;101222.95;106447;1271;111266;-69
2023/12/11 08:04:05;;;;;;;;;;;;;;;1.15;80.40;101215.08;106460;1272;109221;-68
2023/12/11 08:06:38;;;;;;;;;;;;;;;1.18;80.19;101211.64;106446;1273;107692;-69
2023/12/11 08:09:07;;;;;;;;;;;;;;;1.24;80.16;101209.25;106514;1268;97880;-68
2023/12/11 08:11:36;;;;;;;;;;;;;;;1.31;80.45;101202.23;106519;1270;97803;-68
2023/12/11 08:14:05;;;;;;;;;;;;;;;1.40;80.31;101199.93;106494;1274;112238;-70
2023/12/11 08:16:33;;;;;;;;;;;;;;;1.46;80.31;101204.59;106489;1270;108895;-70
2023/12/11 08:19:02;;;;;;;;;;;;;;;1.45;79.67;101206.94;106524;1270;107960;-68
2023/12/11 08:21:31;;;;;;;;;;;;;;;1.42;79.80;101201.77;106516;1273;97951;-68
2023/12/11 08:23:59;;;;;;;;;;;;;;;1.47;79.78;101199.63;106462;1270;97875;-69
2023/12/11 08:26:27;;;;;;;;;;;;;;;1.51;79.44;101197.69;106543;1272;112092;-69
2023/12/11 08:28:56;;;;;;;;;;;;;;;1.52;79.27;101200.96;106555;1270;108547;-69
2023/12/11 08:31:27;;;;;;;;;;;;;;;1.53;79.16;101203.56;106515;1272;107212;-69
2023/12/11 08:33:55;;;;;;;;;;;;;;;1.52;78.85;101196.75;106560;1272;98664;-69
2023/12/11 08:36:23;;;;;;;;;;;;;;;1.52;78.71;101195.67;106572;1270;97801;-68
2023/12/11 08:38:52;;;;;;;;;;;;;;;1.48;78.33;101198.48;106544;1272;111040;-68
2023/12/11 08:41:20;;;;;;;;;;;;;;;1.47;78.50;101210.04;106485;1271;109025;-69
2023/12/11 08:43:49;;;;;;;;;;;;;;;1.49;78.44;101212.60;106515;1273;107723;-69
2023/12/11 08:46:17;;;;;;;;;;;;;;;1.50;78.14;101207.77;106474;1270;97973;-68
2023/12/11 08:48:45;;;;;;;;;;;;;;;1.54;78.26;101213.42;106540;1273;97762;-69
2023/12/11 08:51:16;;;;;;;;;;;;;;;1.61;78.04;101217.77;106533;1271;112167;-70
2023/12/11 08:53:45;;;;;;;;;;;;;;;1.66;78.18;101215.23;106561;1270;109256;-68
2023/12/11 08:56:14;;;;;;;;;;;;;;;1.70;77.89;101214.52;106465;1268;107006;-68
2023/12/11 08:58:43;;;;;;;;;;;;;;;1.80;78.13;101213.74;106516;1270;97888;-68
2023/12/11 09:01:12;;;;;;;;;;;;;;;1.90;78.23;101214.18;106455;1271;97908;-68
2023/12/11 09:03:42;;;;;;;;;;;;;;;1.99;78.08;101213.21;106542;1270;110647;-69
2023/12/11 09:06:13;;;;;;;;;;;;;;;2.10;77.94;101201.39;106517;1270;109863;-67
2023/12/11 09:08:41;;;;;;;;;;;;;;;2.16;77.66;101197.94;106468;1273;107387;-68
2023/12/11 09:11:09;;;;;;;;;;;;;;;2.20;77.45;101199.35;106541;1270;97893;-68
2023/12/11 09:13:37;;;;;;;;;;;;;;;2.15;77.02;101199.59;106554;1270;97721;-69
2023/12/11 09:16:06;;;;;;;;;;;;;;;2.12;77.13;101192.63;106546;1270;111962;-69
2023/12/11 09:18:35;;;;;;;;;;;;;;;2.13;77.37;101194.17;106513;1270;109663;-70
2023/12/11 09:21:04;;;;;;;;;;;;;;;2.16;77.14;101188.74;106447;1273;107839;-68
2023/12/11 09:23:33;;;;;;;;;;;;;;;2.18;77.03;101187.77;106445;1270;97894;-69
2023/12/11 09:26:01;;;;;;;;;;;;;;;2.18;77.46;101192.73;106475;1269;97878;-69
2023/12/11 09:28:29;;;;;;;;;;;;;;;2.17;77.41;101192.76;106521;1268;111281;-69
2023/12/11 09:31:08;;;;;;;;;;;;;;;2.21;77.44;101193.66;106534;1270;109004;-69
2023/12/11 09:33:40;;;;;;;;;;;;;;;2.17;76.64;101184.27;106554;1270;108553;-70
2023/12/11 09:36:09;;;;;;;;;;;;;;;2.20;76.94;101180.05;106397;1273;97876;-69
2023/12/11 09:38:37;;;;;;;;;;;;;;;2.30;77.59;101175.33;106555;1270;97745;-69
2023/12/11 09:41:07;;;;;;;;;;;;;;;2.40;77.06;101171.70;106524;1272;111797;-67
2023/12/11 09:43:36;;;;;;;;;;;;;;;2.45;76.67;101171.99;106524;1270;108766;-67
2023/12/11 09:46:08;;;;;;;;;;;;;;;2.47;76.73;101168.19;106509;1270;108126;-65
2023/12/11 09:48:37;;;;;;;;;;;;;;;2.50;76.62;101172.24;106471;1270;97759;-66
2023/12/11 09:51:06;;;;;;;;;;;;;;;2.53;76.69;101170.38;106524;1270;98791;-67
2023/12/11 09:53:35;;;;;;;;;;;;;;;2.58;76.43;101178.44;106526;1270;110585;-67
2023/12/11 09:56:04;;;;;;;;;;;;;;;2.56;76.30;101170.39;106560;1273;108446;-68
2023/12/11 09:58:32;;;;;;;;;;;;;;;2.51;76.15;101157.89;106474;1270;108678;-69
2023/12/11 10:01:01;;;;;;;;;;;;;;;2.43;75.76;101147.14;106470;1270;97881;-69
2023/12/11 10:03:30;;;;;;;;;;;;;;;2.35;75.82;101146.27;106541;1270;97885;-68
2023/12/11 10:05:59;;;;;;;;;;;;;;;2.27;76.26;101147.70;106519;1270;111749;-68
2023/12/11 10:08:27;;;;;;;;;;;;;;;2.22;76.16;101143.36;106487;1269;109184;-69
2023/12/11 10:11:07;;;;;;;;;;;;;;;2.20;76.22;101144.66;106521;1272;107916;-67
2023/12/11 10:13:35;;;;;;;;;;;;;;;2.24;76.29;101142.19;106504;1271;97870;-66
2023/12/11 10:16:05;;;;;;;;;;;;;;;2.28;76.11;101136.48;106133;1272;549808;-66
2023/12/11 10:18:46;;;;;;;;;;;;;;;2.31;75.80;101129.98;106502;1268;112185;-66
2023/12/11 10:21:14;;;;;;;;;;;;;;;2.33;75.68;101125.98;106498;1270;109888;-65
2023/12/11 10:23:43;;;;;;;;;;;;;;;2.38;75.75;101123.27;106530;1268;108541;-64
2023/12/11 10:26:11;;;;;;;;;;;;;;;2.42;75.64;101126.66;106517;1269;97938;-67
2023/12/11 10:28:40;;;;;;;;;;;;;;;2.43;75.57;101127.48;106533;1271;97879;-66
2023/12/11 10:31:09;;;;;;;;;;;;;;;2.47;75.59;101129.91;106587;1273;111295;-65
2023/12/11 10:33:50;;;;;;;;;;;;;;;2.42;75.03;101129.26;106564;1271;109199;-69
2023/12/11 10:36:19;;;;;;;;;;;;;;;2.37;74.86;101119.59;106471;1269;106649;-70
2023/12/11 10:38:47;;;;;;;;;;;;;;;2.39;75.10;101115.63;106369;1268;97891;-69
2023/12/11 10:41:26;;;;;;;;;;;;;;;2.50;75.14;101113.48;106559;1270;98033;-69
2023/12/11 10:43:54;;;;;;;;;;;;;;;2.58;74.97;101107.94;106459;1273;110980;-69
2023/12/11 10:46:43;;;;;;;;;;;;;;;2.70;75.22;101098.54;106474;1269;109462;-67
2023/12/11 10:49:11;;;;;;;;;;;;;;;2.75;74.80;101095.61;106484;1269;108831;-67
2023/12/11 10:51:40;;;;;;;;;;;;;;;2.75;74.21;101101.30;106512;1268;97849;-65
2023/12/11 10:54:09;;;;;;;;;;;;;;;2.66;74.27;101102.96;106513;1273;97857;-67
2023/12/11 10:56:39;;;;;;;;;;;;;;;2.59;74.26;101105.77;106532;1268;111205;-67
2023/12/11 10:59:07;;;;;;;;;;;;;;;2.59;74.45;101099.77;106566;1268;108790;-66
2023/12/11 11:01:36;;;;;;;;;;;;;;;2.57;74.52;101087.11;106492;1273;107927;-66
2023/12/11 11:04:06;;;;;;;;;;;;;;;2.50;74.22;101076.48;106437;1270;97898;-66
2023/12/11 11:06:38;;;;;;;;;;;;;;;2.49;74.22;101069.98;106354;1270;97941;-69
2023/12/11 11:09:10;;;;;;;;;;;;;;;2.51;74.20;101067.04;106491;1270;112203;-69
2023/12/11 11:11:41;;;;;;;;;;;;;;;2.51;74.47;101062.63;106363;1270;109760;-68
2023/12/11 11:14:13;;;;;;;;;;;;;;;2.59;74.90;101066.84;106470;1270;106747;-69
2023/12/11 11:16:54;;;;;;;;;;;;;;;2.66;75.08;101060.11;106447;1269;97850;-70
2023/12/11 11:19:24;;;;;;;;;;;;;;;2.72;75.25;101060.86;106475;1270;97873;-67
2023/12/11 11:22:06;;;;;;;;;;;;;;;2.74;74.87;101058.27;106463;1270;111304;-66
2023/12/11 11:24:35;;;;;;;;;;;;;;;2.75;74.81;101053.96;106448;1270;109116;-66
2023/12/11 11:27:23;;;;;;;;;;;;;;;2.74;74.64;101043.56;106455;1269;107757;-65
2023/12/11 11:29:52;;;;;;;;;;;;;;;2.70;74.62;101041.30;106458;1270;97881;-67
2023/12/11 11:32:40;;;;;;;;;;;;;;;2.71;74.27;101032.60;106453;1270;97869;-65
2023/12/11 11:35:08;;;;;;;;;;;;;;;2.77;74.21;101038.81;106502;1270;111783;-68
2023/12/11 11:37:50;;;;;;;;;;;;;;;2.74;74.17;101039.14;106445;1270;109312;-65
2023/12/11 11:40:33;;;;;;;;;;;;;;;2.72;74.29;101037.88;106454;1273;106989;-71
2023/12/11 11:43:03;;;;;;;;;;;;;;;2.72;74.58;101027.75;106460;1270;97962;-70
2023/12/11 11:45:31;;;;;;;;;;;;;;;2.72;74.71;101027.39;106492;1270;97775;-69
2023/12/11 11:48:00;;;;;;;;;;;;;;;2.73;74.96;101030.34;106467;1268;111671;-70
2023/12/11 11:50:28;;;;;;;;;;;;;;;2.73;74.72;101033.00;106571;1268;109569;-70
2023/12/11 11:53:05;;;;;;;;;;;;;;;2.75;75.06;101029.52;106452;1268;108309;-68
2023/12/11 11:55:37;;;;;;;;;;;;;;;2.80;75.09;101029.45;106491;1272;97958;-68
2023/12/11 11:58:13;;;;;;;;;;;;;;;2.79;74.74;101022.06;106485;1268;97847;-66
2023/12/11 12:00:42;;;;;;;;;;;;;;;2.73;74.76;101017.95;106506;1270;112283;-65
2023/12/11 12:03:11;;;;;;;;;;;;;;;2.68;74.55;101016.42;106489;1270;111170;-66
2023/12/11 12:05:55;;;;;;;;;;;;;;;2.62;74.26;101009.11;106446;1273;109495;-65
2023/12/11 12:08:24;;;;;;;;;;;;;;;2.53;74.54;101008.88;106499;1268;98213;-66
2023/12/11 12:10:56;;;;;;;;;;;;;;;2.52;74.70;101016.04;106533;1268;97745;-66
2023/12/11 12:24:03;;;;;;;;;;;;;;;2.54;75.66;101008.67;102244;1274;953477;-69
2023/12/11 12:26:34;;;;;;;;;;;;;;;2.61;75.54;101002.25;106504;1268;97851;-68
2023/12/11 12:29:03;;;;;;;;;;;;;;;2.68;75.60;100997.84;106482;1271;111391;-68
2023/12/11 12:31:31;;;;;;;;;;;;;;;2.70;75.26;100992.45;106476;1271;109116;-66
2023/12/11 12:33:59;;;;;;;;;;;;;;;2.70;75.00;101001.48;106360;1268;108433;-67
2023/12/11 12:36:29;;;;;;;;;;;;;;;2.66;74.78;101007.35;106355;1273;97872;-67
2023/12/11 12:38:58;;;;;;;;;;;;;;;2.61;74.75;101005.48;106437;1268;97894;-66
2023/12/11 12:41:26;;;;;;;;;;;;;;;2.60;74.85;101002.71;106478;1268;111745;-66
2023/12/11 12:44:01;;;;;;;;;;;;;;;2.56;74.75;100994.77;106453;1268;109172;-64
2023/12/11 12:46:40;;;;;;;;;;;;;;;2.47;74.60;100991.81;106237;1268;108221;-68
2023/12/11 12:49:09;;;;;;;;;;;;;;;2.39;74.51;100988.67;106368;1269;98335;-68
2023/12/11 12:51:50;;;;;;;;;;;;;;;2.35;74.83;100988.89;107284;1268;96457;-69
2023/12/11 12:54:19;;;;;;;;;;;;;;;2.39;75.08;100989.75;106636;1273;111525;-69
2023/12/11 12:56:53;;;;;;;;;;;;;;;2.42;74.84;100990.69;106294;1268;109356;-69
2023/12/11 12:59:22;;;;;;;;;;;;;;;2.45;74.86;100989.98;106346;1272;107038;-68
2023/12/11 13:01:52;;;;;;;;;;;;;;;2.44;74.37;100988.43;106423;1269;97862;-67
2023/12/11 13:04:21;;;;;;;;;;;;;;;2.44;74.16;100988.61;106593;1271;97854;-67
2023/12/11 13:06:50;;;;;;;;;;;;;;;2.42;74.02;100994.04;106568;1270;112092;-66
2023/12/11 13:09:29;;;;;;;;;;;;;;;2.38;73.74;101000.27;106548;1271;110867;-66
2023/12/11 13:15:16;;;;;;;;;;;;;;;2.29;74.32;101004.44;106432;1268;97873;-65
2023/12/11 13:17:48;;;;;;;;;;;;;;;2.27;74.20;101000.27;106493;1273;97869;-68
2023/12/11 13:20:19;;;;;;;;;;;;;;;2.23;74.03;101004.18;106536;1272;110463;-70
2023/12/11 13:22:49;;;;;;;;;;;;;;;2.17;73.73;101011.36;106524;1271;108977;-69
2023/12/11 13:25:17;;;;;;;;;;;;;;;2.10;73.62;101017.39;106503;1268;108356;-68
2023/12/11 13:27:46;;;;;;;;;;;;;;;2.01;73.68;101011.46;106533;1272;97859;-69
2023/12/11 13:30:16;;;;;;;;;;;;;;;1.96;73.73;101012.57;106575;1270;97728;-68
2023/12/11 13:32:44;;;;;;;;;;;;;;;1.92;73.77;101016.85;106548;1269;110972;-68
2023/12/11 13:35:12;;;;;;;;;;;;;;;1.85;73.63;101014.30;106503;1269;109460;-66
2023/12/11 13:37:40;;;;;;;;;;;;;;;1.84;73.92;101014.75;106516;1267;108689;-72
2023/12/11 13:40:11;;;;;;;;;;;;;;;1.83;74.12;101012.34;106461;1272;97907;-67
2023/12/11 13:42:39;;;;;;;;;;;;;;;1.83;74.62;101008.27;107399;1270;95788;-67
2023/12/11 13:45:07;;;;;;;;;;;;;;;1.84;74.71;101007.29;106386;1269;112083;-66
2023/12/11 13:47:36;;;;;;;;;;;;;;;1.86;74.78;101010.60;107107;1269;108976;-69
2023/12/11 13:50:04;;;;;;;;;;;;;;;1.91;75.12;101021.11;107733;1268;107932;-68
2023/12/11 13:52:33;;;;;;;;;;;;;;;1.94;74.96;101031.95;106992;1267;97863;-69
2023/12/11 13:55:02;;;;;;;;;;;;;;;1.94;75.03;101041.53;106544;1270;97847;-69
2023/12/11 13:57:32;;;;;;;;;;;;;;;1.92;74.65;101040.73;106526;1268;111672;-69
2023/12/11 14:00:00;;;;;;;;;;;;;;;1.91;74.78;101038.31;106483;1267;109973;-67
2023/12/11 14:02:31;;;;;;;;;;;;;;;1.89;74.17;101043.54;106538;1267;108475;-67
2023/12/11 14:05:20;;;;;;;;;;;;;;;1.84;74.21;101034.92;106508;1270;97872;-65
2023/12/11 14:07:49;;;;;;;;;;;;;;;1.80;74.35;101031.37;106455;1272;97842;-66
2023/12/11 14:10:17;;;;;;;;;;;;;;;1.80;74.49;101029.81;106593;1270;110626;-66
2023/12/11 14:12:45;;;;;;;;;;;;;;;1.78;74.35;101024.23;106646;1267;109249;-66
2023/12/11 14:15:14;;;;;;;;;;;;;;;1.74;74.15;101016.66;106533;1270;108463;-67
2023/12/11 14:17:42;;;;;;;;;;;;;;;1.69;74.50;101015.29;106488;1268;97935;-67
2023/12/11 14:20:11;;;;;;;;;;;;;;;1.64;74.31;101010.40;106589;1270;97848;-69
2023/12/11 14:22:40;;;;;;;;;;;;;;;1.58;74.43;100992.98;106561;1271;110484;-69
2023/12/11 14:25:08;;;;;;;;;;;;;;;1.53;74.47;100991.13;106489;1270;109058;-69
2023/12/11 14:27:37;;;;;;;;;;;;;;;1.48;74.53;101001.09;106468;1269;106340;-69
2023/12/11 14:30:06;;;;;;;;;;;;;;;1.46;74.69;101010.55;106493;1270;97862;-69
2023/12/11 14:32:35;;;;;;;;;;;;;;;1.42;74.81;101024.52;106504;1271;97989;-67
2023/12/11 14:35:04;;;;;;;;;;;;;;;1.42;75.07;101022.17;106517;1270;111886;-65
2023/12/11 14:37:33;;;;;;;;;;;;;;;1.45;75.05;101019.42;106564;1272;108984;-65
2023/12/11 14:40:02;;;;;;;;;;;;;;;1.48;75.31;101017.15;106494;1271;108679;-65
2023/12/11 14:42:31;;;;;;;;;;;;;;;1.50;75.14;101006.79;106575;1270;97952;-65
2023/12/11 14:44:59;;;;;;;;;;;;;;;1.52;75.38;101002.80;106495;1270;97874;-67
2023/12/11 14:47:27;;;;;;;;;;;;;;;1.54;75.30;100999.53;106502;1273;110863;-66
2023/12/11 14:49:57;;;;;;;;;;;;;;;1.53;75.18;100986.70;106604;1270;108848;-66
2023/12/11 14:52:26;;;;;;;;;;;;;;;1.49;75.03;100985.27;106574;1267;107920;-66
2023/12/11 14:54:54;;;;;;;;;;;;;;;1.47;75.25;100993.88;106547;1267;97880;-70
2023/12/11 14:57:23;;;;;;;;;;;;;;;1.51;75.40;100994.05;106526;1273;98045;-70
2023/12/11 14:59:51;;;;;;;;;;;;;;;1.54;75.56;100994.43;106547;1267;111035;-68
2023/12/11 15:02:20;;;;;;;;;;;;;;;1.58;75.64;100996.16;106423;1267;108678;-69
2023/12/11 15:04:48;;;;;;;;;;;;;;;1.62;75.56;100992.11;106536;1271;108962;-68
2023/12/11 15:07:16;;;;;;;;;;;;;;;1.64;75.58;100992.91;106486;1270;97873;-67
2023/12/11 15:09:44;;;;;;;;;;;;;;;1.64;75.61;100987.20;106527;1267;97844;-66
2023/12/11 15:12:13;;;;;;;;;;;;;;;1.59;75.14;100986.61;106612;1267;112095;-67
2023/12/11 15:14:41;;;;;;;;;;;;;;;1.52;75.44;100979.12;106626;1271;109865;-67
2023/12/11 15:17:10;;;;;;;;;;;;;;;1.45;75.49;100972.02;106518;1270;108103;-65
2023/12/11 15:19:41;;;;;;;;;;;;;;;1.40;75.72;100971.21;106547;1267;97904;-67
2023/12/11 15:22:09;;;;;;;;;;;;;;;1.36;75.66;100975.80;106606;1267;97775;-66
2023/12/11 15:24:38;;;;;;;;;;;;;;;1.33;75.56;100982.33;106563;1267;111337;-67
2023/12/11 15:27:06;;;;;;;;;;;;;;;1.31;75.42;100986.30;106567;1270;109476;-67
2023/12/11 15:29:36;;;;;;;;;;;;;;;1.27;75.20;100984.91;106467;1267;107884;-67
2023/12/11 15:32:04;;;;;;;;;;;;;;;1.20;75.26;100998.08;106601;1270;98243;-67
2023/12/11 15:34:33;;;;;;;;;;;;;;;1.16;75.43;101007.11;106577;1267;98668;-67
2023/12/11 15:37:04;;;;;;;;;;;;;;;1.14;75.70;101009.52;106529;1270;111566;-68
2023/12/11 15:39:33;;;;;;;;;;;;;;;1.13;75.87;100998.95;106513;1267;109209;-68
2023/12/11 15:42:01;;;;;;;;;;;;;;;1.12;75.81;100997.08;106551;1270;108078;-70
2023/12/11 15:44:29;;;;;;;;;;;;;;;1.09;75.80;100990.64;106498;1267;97938;-67
2023/12/11 15:46:57;;;;;;;;;;;;;;;1.04;75.76;100989.48;106525;1272;97743;-67
2023/12/11 15:49:25;;;;;;;;;;;;;;;0.99;76.02;100987.61;106565;1270;112063;-67
2023/12/11 15:51:54;;;;;;;;;;;;;;;0.93;76.23;100989.77;106599;1267;108872;-64
2023/12/11 15:54:23;;;;;;;;;;;;;;;0.91;76.17;100996.58;106580;1270;108016;-66
2023/12/11 15:56:51;;;;;;;;;;;;;;;0.92;76.34;100999.87;106480;1268;97877;-67
2023/12/11 15:59:20;;;;;;;;;;;;;;;0.95;76.37;100997.13;106542;1267;97818;-68
2023/12/11 16:01:48;;;;;;;;;;;;;;;0.98;76.54;100993.83;106475;1267;111599;-67